BIKF/KEF METAR and TAF weather

Enter ICAO airport designator
Station Type Date Time Source
BIKF METAR 2021/03/01 03:30 UTC NOAA

BIKF 010330Z 23018KT 9999 FEW022 SCT032 BKN063 03/00 Q1015


Station Type Date Time Source
BIKF Decoded METAR 2021/03/01 03:30 UTC NOAA

Keflavikurflugvollur, Iceland (BIKF) 63-58N 022-36W 54M
Feb 28, 2021 - 10:30 PM EST / 2021.03.01 0330 UTC
Wind: from the SW (230 degrees) at 21 MPH (18 KT):0
Visibility: greater than 7 mile(s):0
Sky conditions: mostly cloudy
Temperature: 37 F (3 C)
Dew Point: 32 F (0 C)
Relative Humidity: 80%
Pressure (altimeter): 29.97 in. Hg (1015 hPa)
ob: BIKF 010330Z 23018KT 9999 FEW022 SCT032 BKN063 03/00 Q1015
cycle: 3

Station Type Date Time Source
BIKF TAF 2021/03/01 03:05 UTC NOAA

TAF BIKF 010102Z 0103/0203 22020G30KT 9999 SCT020 BKN030 TX05/0115Z TN01/0108Z
BECMG 0107/0109 23015KT
BECMG 0116/0118 21008KT
BECMG 0200/0202 12010KT SNRA BKN010 OVC015

Example: see airport list